Atlas — WDG6819 — position and weather

sailwx.info

Track history (hours):
 
Tides and Currents Weather Stations Pressure Air Temp Water Temp Dewpoint Dewpoint Depression Visibility Wind Speed Wind Dir Waves Ship Positions

Atlas

Owner: Seabulk Towing, Inc., Fort Lauderdale, FL. More information available from US FCC via Universal Licensing System and Coast Guard Vessel Documentation Center.

Last reported at 2017-Sep-22 02:00 UTC. Time now 2017-Sep-22 08:16 UTC.
Position N 27°55' W 082°27'.

Length 30 m; draft 6 m.

Type: Tug. MMSI: 367560990.

Date/timePositionNaut miles runAvg speedWind from/ knotsBaromVisibWave heightAir tempDewpointWater temp
2017-Sep-22 02:00N 27°55' W 082°27'0 0.0
2017-Sep-22 01:30N 27°55' W 082°27'1 2.6
2017-Sep-22 01:01N 27°54' W 082°26'1 1.6
2017-Sep-22 00:30N 27°55' W 082°27'0 0.2
2017-Sep-22 00:00N 27°55' W 082°26'0 0.0
2017-Sep-21 23:30N 27°55' W 082°26'0 0.8
2017-Sep-21 23:00N 27°55' W 082°27'1 1.2
2017-Sep-21 22:30N 27°55' W 082°26'2 4.1
2017-Sep-21 22:00N 27°53' W 082°26'2 3.9
2017-Sep-21 21:30N 27°54' W 082°26'1 1.9
2017-Sep-21 21:00N 27°55' W 082°27'0 0.0
2017-Sep-21 20:30N 27°55' W 082°27'0 0.0
2017-Sep-21 20:00N 27°55' W 082°27'0 0.0
2017-Sep-21 19:30N 27°55' W 082°27'0 0.0
2017-Sep-21 19:00N 27°55' W 082°27'0 0.0
2017-Sep-21 18:30N 27°55' W 082°27'0 0.0
2017-Sep-21 18:00N 27°55' W 082°27'0 0.0
2017-Sep-21 17:30N 27°55' W 082°27'0 0.0
2017-Sep-21 17:00N 27°55' W 082°27'0 0.0
2017-Sep-21 16:30N 27°55' W 082°27'0 0.0
2017-Sep-21 16:00N 27°55' W 082°27'0 0.0
2017-Sep-21 15:30N 27°55' W 082°27'0 0.0
2017-Sep-21 15:00N 27°55' W 082°27'0 0.0
2017-Sep-21 14:30N 27°55' W 082°27'0 0.0
2017-Sep-21 14:00N 27°55' W 082°27'0 0.0
2017-Sep-21 13:30N 27°55' W 082°27'0 0.0
2017-Sep-21 13:00N 27°55' W 082°27'0 0.0
2017-Sep-21 12:30N 27°55' W 082°27'0 0.0
2017-Sep-21 12:00N 27°55' W 082°27'0 0.0
2017-Sep-21 11:30N 27°55' W 082°27'0 0.0
2017-Sep-21 11:00N 27°55' W 082°27'0 0.0
2017-Sep-21 10:30N 27°55' W 082°27'0 0.0
2017-Sep-21 10:00N 27°55' W 082°27'0 0.0
2017-Sep-21 09:30N 27°55' W 082°27'0 0.0
2017-Sep-21 09:00N 27°55' W 082°27'0 0.0
2017-Sep-21 08:30N 27°55' W 082°27'0 0.0
2017-Sep-21 08:00N 27°55' W 082°27'0 0.0
2017-Sep-21 07:30N 27°55' W 082°27'0 0.0
2017-Sep-21 07:00N 27°55' W 082°27'0 0.0
2017-Sep-21 06:30N 27°55' W 082°27'0 0.0
2017-Sep-21 06:00N 27°55' W 082°27'0 0.0
2017-Sep-21 05:30N 27°55' W 082°27'0 0.0
2017-Sep-21 05:00N 27°55' W 082°27'0 0.9
2017-Sep-21 04:31N 27°55' W 082°27'0 0.4
2017-Sep-21 04:00N 27°55' W 082°27'0 0.6
2017-Sep-21 03:30N 27°55' W 082°27'0 0.0
2017-Sep-21 03:00N 27°55' W 082°27'0 0.0
2017-Sep-21 02:30N 27°55' W 082°27'0 0.0
2017-Sep-21 02:00N 27°55' W 082°27'0 0.0
2017-Sep-21 01:30N 27°55' W 082°27'0 0.0
2017-Sep-21 01:00N 27°55' W 082°27'0 0.0
2017-Sep-21 00:30N 27°55' W 082°27'0 0.0
2017-Sep-21 00:00N 27°55' W 082°27'0 0.0
2017-Sep-20 23:30N 27°55' W 082°27'0 0.0
2017-Sep-20 23:00N 27°55' W 082°27'0 0.0
2017-Sep-20 22:30N 27°55' W 082°27'0 0.0
2017-Sep-20 22:00N 27°55' W 082°27'0 0.0
2017-Sep-20 21:30N 27°55' W 082°27'0 0.0
2017-Sep-20 21:00N 27°55' W 082°27'0 0.0
2017-Sep-20 20:30N 27°55' W 082°27'0 0.0
2017-Sep-20 20:00N 27°55' W 082°27'0 0.0
2017-Sep-20 19:30N 27°55' W 082°27'0 0.0
2017-Sep-20 19:00N 27°55' W 082°27'0 0.0
2017-Sep-20 18:30N 27°55' W 082°27'0 0.0
2017-Sep-20 18:00N 27°55' W 082°27'0 0.0
2017-Sep-20 17:30N 27°55' W 082°27'0 0.0
2017-Sep-20 17:00N 27°55' W 082°27'0 0.0
2017-Sep-20 16:30N 27°55' W 082°27'3 5.5
2017-Sep-20 16:00N 27°53' W 082°26'4 7.9
2017-Sep-20 15:29N 27°49' W 082°27'4 8.2
2017-Sep-20 15:01N 27°47' W 082°31'3 0.1
2017-Sep-19 16:56N 27°48' W 082°34'4 8.1
2017-Sep-19 16:29N 27°51' W 082°33'1 1.4
2017-Sep-19 16:00N 27°52' W 082°33'0 0.0
2017-Sep-19 15:30N 27°52' W 082°33'0 0.0
2017-Sep-19 15:00N 27°52' W 082°33'0 0.0
2017-Sep-19 14:30N 27°52' W 082°33'0 0.6
2017-Sep-19 14:00N 27°52' W 082°33'0 0.3
2017-Sep-19 13:29N 27°52' W 082°33'0 0.0
2017-Sep-19 13:00N 27°52' W 082°33'6 5.1
2017-Sep-19 11:50N 27°49' W 082°27'3 9.4
2017-Sep-19 11:30N 27°52' W 082°26'3 5.8
2017-Sep-19 11:00N 27°55' W 082°27'0 0.0
2017-Sep-19 10:30N 27°55' W 082°27'0 0.0
2017-Sep-19 10:00N 27°55' W 082°27'0 0.0
2017-Sep-19 09:30N 27°55' W 082°27'0 0.0
2017-Sep-19 09:00N 27°55' W 082°27'0 0.0
2017-Sep-19 08:30N 27°55' W 082°27'0 0.0
2017-Sep-19 08:00N 27°55' W 082°27'0 0.0
2017-Sep-19 07:30N 27°55' W 082°27'0 0.0
2017-Sep-19 07:00N 27°55' W 082°27'0 0.0
2017-Sep-19 06:30N 27°55' W 082°27'0 0.0
2017-Sep-19 06:00N 27°55' W 082°27'0 0.0
2017-Sep-19 05:30N 27°55' W 082°27'0 0.0
2017-Sep-19 05:00N 27°55' W 082°27'0 0.0
2017-Sep-19 04:30N 27°55' W 082°27'0 0.0
2017-Sep-19 04:00N 27°55' W 082°27'0 0.0
2017-Sep-19 03:30N 27°55' W 082°27'0 0.0
2017-Sep-19 03:00N 27°55' W 082°27'0 0.0
2017-Sep-19 02:30N 27°55' W 082°27'0 0.0
2017-Sep-19 02:00N 27°55' W 082°27'0 0.0
2017-Sep-19 01:30N 27°55' W 082°27'0 0.0
2017-Sep-19 01:00N 27°55' W 082°27'0 0.0
2017-Sep-19 00:30N 27°55' W 082°27'0 0.0
2017-Sep-19 00:00N 27°55' W 082°27'0 0.0
2017-Sep-18 23:30N 27°55' W 082°27'1 2.5
2017-Sep-18 23:00N 27°54' W 082°26'1 1.9
2017-Sep-18 22:30N 27°55' W 082°25'0 0.3
2017-Sep-18 22:00N 27°55' W 082°25'1 1.3
2017-Sep-18 21:30N 27°54' W 082°26'0 0.4
2017-Sep-18 21:00N 27°54' W 082°25'1 2.4
2017-Sep-18 20:30N 27°55' W 082°27'1 1.4
2017-Sep-18 20:00N 27°55' W 082°27'0 0.0
2017-Sep-18 19:30N 27°55' W 082°27'0 0.0
2017-Sep-18 19:00N 27°55' W 082°27'0 0.0
2017-Sep-18 18:30N 27°55' W 082°27'0 0.0
2017-Sep-18 18:00N 27°55' W 082°27'0 0.5
2017-Sep-18 17:31N 27°55' W 082°27'1 2.0
2017-Sep-18 17:00N 27°54' W 082°26'0 0.4
2017-Sep-18 16:30N 27°54' W 082°26'1 2.0
2017-Sep-18 16:00N 27°55' W 082°27'0 0.0
2017-Sep-18 15:30N 27°55' W 082°27'0 0.0
2017-Sep-18 15:00N 27°55' W 082°27'0 0.0
2017-Sep-18 14:30N 27°55' W 082°27'0 0.0
2017-Sep-18 14:00N 27°55' W 082°27'0 0.0
2017-Sep-18 13:30N 27°55' W 082°27'0 0.0
2017-Sep-18 13:00N 27°55' W 082°27'0 0.0
2017-Sep-18 12:30N 27°55' W 082°27'0 0.0
2017-Sep-18 12:00N 27°55' W 082°27'0 0.0
2017-Sep-18 11:30N 27°55' W 082°27'0 0.0
2017-Sep-18 11:00N 27°55' W 082°27'0 0.0
2017-Sep-18 10:30N 27°55' W 082°27'0 0.0
2017-Sep-18 10:00N 27°55' W 082°27'0 0.0
2017-Sep-18 09:30N 27°55' W 082°27'0 0.0
2017-Sep-18 09:00N 27°55' W 082°27'0 0.0
2017-Sep-18 08:30N 27°55' W 082°27'0 0.0
2017-Sep-18 08:00N 27°55' W 082°27'0 0.0
2017-Sep-18 07:30N 27°55' W 082°27'0 0.0
2017-Sep-18 07:00N 27°55' W 082°27'0 0.0
2017-Sep-18 06:30N 27°55' W 082°27'0 0.0
2017-Sep-18 06:00N 27°55' W 082°27'0 0.0
2017-Sep-18 05:30N 27°55' W 082°27'0 0.0
2017-Sep-18 05:00N 27°55' W 082°27'0 0.0
2017-Sep-18 04:30N 27°55' W 082°27'0 0.0
2017-Sep-18 04:00N 27°55' W 082°27'0 0.0
2017-Sep-18 03:30N 27°55' W 082°27'0 0.0
2017-Sep-18 03:00N 27°55' W 082°27'0 0.0
2017-Sep-18 02:30N 27°55' W 082°27'0 0.0
2017-Sep-18 02:00N 27°55' W 082°27'0 0.0
2017-Sep-18 01:30N 27°55' W 082°27'0 0.0
2017-Sep-18 01:00N 27°55' W 082°27'0 0.0
2017-Sep-18 00:30N 27°55' W 082°27'0 0.0
2017-Sep-18 00:00N 27°55' W 082°27'0 0.8
2017-Sep-17 23:30N 27°55' W 082°27'0 0.0
2017-Sep-17 23:00N 27°55' W 082°27'0 0.3
2017-Sep-17 22:30N 27°55' W 082°27'2 3.3
2017-Sep-17 22:00N 27°53' W 082°26'0 0.9
2017-Sep-17 21:30N 27°53' W 082°26'2 4.4
2017-Sep-17 21:00N 27°55' W 082°26'0 0.0
2017-Sep-17 20:30N 27°55' W 082°26'0 0.6
2017-Sep-17 20:01N 27°55' W 082°26'0 0.2
2017-Sep-17 19:31N 27°55' W 082°26'2 3.4
2017-Sep-17 19:00N 27°54' W 082°26'3 6.8
2017-Sep-17 18:30N 27°50' W 082°27'3 5.5
2017-Sep-17 18:00N 27°48' W 082°28'3 5.5
2017-Sep-17 17:30N 27°47' W 082°31'4 7.8
2017-Sep-17 16:58N 27°43' W 082°32'4 0.5
2017-Sep-17 08:56N 27°47' W 082°31'5 8.4
2017-Sep-17 08:22N 27°51' W 082°33'1 2.1
2017-Sep-17 08:00N 27°52' W 082°33'0 0.0
2017-Sep-17 07:30N 27°52' W 082°33'0 0.0
2017-Sep-17 07:00N 27°52' W 082°33'0 0.0
2017-Sep-17 06:30N 27°52' W 082°33'0 0.0
2017-Sep-17 06:00N 27°52' W 082°33'0 0.0
2017-Sep-17 05:30N 27°52' W 082°33'0 0.0
2017-Sep-17 05:00N 27°52' W 082°33'0 0.0
2017-Sep-17 04:30N 27°52' W 082°33'0 0.0
2017-Sep-17 04:00N 27°52' W 082°33'0 0.0
2017-Sep-17 03:30N 27°52' W 082°33'0 0.0
2017-Sep-17 03:00N 27°52' W 082°33'0 0.0
2017-Sep-17 02:30N 27°52' W 082°33'0 0.0
2017-Sep-17 02:00N 27°52' W 082°33'0 0.0
2017-Sep-17 01:30N 27°52' W 082°33'0 0.0
2017-Sep-17 01:00N 27°52' W 082°33'0 0.0
2017-Sep-17 00:30N 27°52' W 082°33'0 0.0
2017-Sep-17 00:00N 27°52' W 082°33'0 0.0
2017-Sep-16 23:30N 27°52' W 082°33'0 0.0
2017-Sep-16 23:00N 27°52' W 082°33'0 0.0
2017-Sep-16 22:30N 27°52' W 082°33'0 0.0
2017-Sep-16 22:00N 27°52' W 082°33'0 0.0
2017-Sep-16 21:30N 27°52' W 082°33'0 0.0
2017-Sep-16 21:00N 27°52' W 082°33'0 0.0
2017-Sep-16 20:30N 27°52' W 082°33'0 0.0
2017-Sep-16 20:00N 27°52' W 082°33'0 0.0
2017-Sep-16 19:30N 27°52' W 082°33'0 0.0
2017-Sep-16 19:00N 27°52' W 082°33'0 0.0
2017-Sep-16 18:30N 27°52' W 082°33'0 0.0
2017-Sep-16 18:00N 27°52' W 082°33'0 0.0
2017-Sep-16 17:30N 27°52' W 082°33'0 0.0
2017-Sep-16 17:00N 27°52' W 082°33'0 0.0
2017-Sep-16 16:30N 27°52' W 082°33'0 0.0
2017-Sep-16 16:00N 27°52' W 082°33'0 0.0
2017-Sep-16 15:30N 27°52' W 082°33'0 0.0
2017-Sep-16 15:00N 27°52' W 082°33'0 0.0
2017-Sep-16 14:30N 27°52' W 082°33'0 0.0
2017-Sep-16 14:00N 27°52' W 082°33'0 0.0
2017-Sep-16 13:30N 27°52' W 082°33'0 0.0
2017-Sep-16 13:00N 27°52' W 082°33'0 0.0
2017-Sep-16 12:30N 27°52' W 082°33'0 0.0
2017-Sep-16 12:00N 27°52' W 082°33'0 0.0
2017-Sep-16 11:30N 27°52' W 082°33'0 0.0
2017-Sep-16 11:00N 27°52' W 082°33'0 0.0
2017-Sep-16 10:30N 27°52' W 082°33'0 0.0
2017-Sep-16 10:00N 27°52' W 082°33'0 0.0
2017-Sep-16 09:30N 27°52' W 082°33'0 0.0
2017-Sep-16 09:00N 27°52' W 082°33'0 0.0
2017-Sep-16 08:30N 27°52' W 082°33'0 0.0
2017-Sep-16 08:00N 27°52' W 082°33'0 0.0
2017-Sep-16 07:30N 27°52' W 082°33'0 0.0
2017-Sep-16 07:00N 27°52' W 082°33'0 0.0
2017-Sep-16 06:30N 27°52' W 082°33'0 0.0
2017-Sep-16 06:00N 27°52' W 082°33'0 0.0
2017-Sep-16 05:30N 27°52' W 082°33'0 0.0
2017-Sep-16 05:00N 27°52' W 082°33'0 0.0
2017-Sep-16 04:30N 27°52' W 082°33'0 0.0
2017-Sep-16 04:00N 27°52' W 082°33'0 0.0
2017-Sep-16 03:30N 27°52' W 082°33'0 0.0
2017-Sep-16 03:00N 27°52' W 082°33'0 0.0
2017-Sep-16 02:30N 27°52' W 082°33'0 0.0
2017-Sep-16 02:00N 27°52' W 082°33'0 0.0
2017-Sep-16 01:30N 27°52' W 082°33'0 0.0
2017-Sep-16 01:00N 27°52' W 082°33'0 0.1
2017-Sep-16 00:30N 27°52' W 082°33'0 0.2
2017-Sep-16 00:00N 27°52' W 082°33'2 3.4
2017-Sep-15 23:27N 27°50' W 082°34'6 6.7
2017-Sep-15 22:37N 27°48' W 082°28'111.1
2017-Sep-15 22:30N 27°49' W 082°27'611.2
2017-Sep-15 22:00N 27°54' W 082°26'2 4.3
2017-Sep-15 21:30N 27°57' W 082°27'1 1.0
2017-Sep-15 21:00N 27°57' W 082°27'0 0.3
2017-Sep-15 20:30N 27°57' W 082°27'0 0.6
2017-Sep-15 20:00N 27°57' W 082°27'0 0.2
2017-Sep-15 19:30N 27°57' W 082°27'0 0.9
2017-Sep-15 19:00N 27°56' W 082°27'2 4.1
2017-Sep-15 18:30N 27°54' W 082°26'1 2.8
2017-Sep-15 18:00N 27°55' W 082°25'1 1.4
2017-Sep-15 17:30N 27°55' W 082°26'1 2.3
2017-Sep-15 17:00N 27°55' W 082°27'0 0.0
2017-Sep-15 16:30N 27°55' W 082°27'0 0.0
2017-Sep-15 16:00N 27°55' W 082°27'0 0.0
2017-Sep-15 15:30N 27°55' W 082°27'0 0.0
2017-Sep-15 15:00N 27°55' W 082°27'2 4.1
2017-Sep-15 14:30N 27°53' W 082°26'4 8.7
2017-Sep-15 14:00N 27°49' W 082°27'2 1.7
2017-Sep-15 12:57N 27°51' W 082°27'4 8.6
2017-Sep-15 12:30N 27°54' W 082°26'1 1.8
2017-Sep-15 12:00N 27°55' W 082°27'0 0.0
2017-Sep-15 11:30N 27°55' W 082°27'0 0.0
2017-Sep-15 11:00N 27°55' W 082°27'0 0.0
2017-Sep-15 10:30N 27°55' W 082°27'0 0.0
2017-Sep-15 10:00N 27°55' W 082°27'0 0.0
2017-Sep-15 09:30N 27°55' W 082°27'0 0.0
2017-Sep-15 09:00N 27°55' W 082°27'0 0.0
2017-Sep-15 08:30N 27°55' W 082°27'0 0.0
2017-Sep-15 08:00N 27°55' W 082°27'0 0.0
2017-Sep-15 07:30N 27°55' W 082°27'0 0.0
2017-Sep-15 07:00N 27°55' W 082°27'0 0.0
2017-Sep-15 06:30N 27°55' W 082°27'0 0.0
2017-Sep-15 06:00N 27°55' W 082°27'0 0.2
2017-Sep-15 05:30N 27°55' W 082°27'1 2.1
2017-Sep-15 05:00N 27°56' W 082°27'0 0.9
2017-Sep-15 04:30N 27°56' W 082°27'1 1.4
2017-Sep-15 04:00N 27°55' W 082°27'0 0.0
2017-Sep-15 03:30N 27°55' W 082°27'0 0.0
2017-Sep-15 03:00N 27°55' W 082°27'0 0.0
2017-Sep-15 02:30N 27°55' W 082°27'0 0.0
2017-Sep-15 02:00N 27°55' W 082°27'1 2.7
2017-Sep-15 01:30N 27°54' W 082°26'5 9.8
2017-Sep-15 01:00N 27°49' W 082°27'6 9.1
2017-Sep-15 00:23N 27°47' W 082°33'3 6.9
2017-Sep-15 00:00N 27°50' W 082°34'2 4.6
2017-Sep-14 23:30N 27°52' W 082°33'0 0.0
2017-Sep-14 23:00N 27°52' W 082°33'1 1.7
2017-Sep-14 22:20N 27°51' W 082°34'6 5.8
2017-Sep-14 21:16N 27°49' W 082°27'311.3
2017-Sep-14 21:00N 27°52' W 082°27'3 6.7
2017-Sep-14 20:30N 27°55' W 082°27'0 0.2
2017-Sep-14 20:00N 27°55' W 082°27'0 0.5
2017-Sep-14 19:30N 27°55' W 082°27'0 0.0
2017-Sep-14 19:00N 27°55' W 082°27'0 0.0
2017-Sep-14 18:30N 27°55' W 082°27'0 0.0
2017-Sep-14 18:00N 27°55' W 082°27'0 0.0
2017-Sep-14 17:30N 27°55' W 082°27'0 0.0
2017-Sep-14 17:00N 27°55' W 082°27'0 0.0
2017-Sep-14 16:30N 27°55' W 082°27'0 0.0
2017-Sep-14 16:00N 27°55' W 082°27'0 0.0
2017-Sep-14 15:30N 27°55' W 082°27'0 0.0
2017-Sep-14 15:00N 27°55' W 082°27'0 0.0
2017-Sep-14 14:30N 27°55' W 082°27'0 0.0
2017-Sep-14 14:00N 27°55' W 082°27'0 0.0
2017-Sep-14 13:30N 27°55' W 082°27'0 0.0
2017-Sep-14 13:00N 27°55' W 082°27'0 0.0
2017-Sep-14 12:30N 27°55' W 082°27'0 0.0
2017-Sep-14 12:00N 27°55' W 082°27'2 3.6
2017-Sep-14 11:30N 27°57' W 082°27'0 0.0
2017-Sep-14 11:00N 27°57' W 082°27'1 2.2
2017-Sep-14 10:30N 27°56' W 082°27'1 2.2
2017-Sep-14 10:00N 27°55' W 082°27'0 0.9
2017-Sep-14 09:30N 27°55' W 082°27'0 0.0
2017-Sep-14 09:00N 27°55' W 082°27'0 0.0
2017-Sep-14 08:30N 27°55' W 082°27'0 0.0
2017-Sep-14 08:00N 27°55' W 082°27'0 0.0
2017-Sep-14 07:30N 27°55' W 082°27'0 0.0
2017-Sep-14 07:00N 27°55' W 082°27'0 0.0
2017-Sep-14 06:30N 27°55' W 082°27'0 0.0
2017-Sep-14 06:00N 27°55' W 082°27'0 0.0
2017-Sep-14 05:30N 27°55' W 082°27'0 0.0
2017-Sep-14 05:00N 27°55' W 082°27'0 0.0
2017-Sep-14 04:30N 27°55' W 082°27'0 0.0
2017-Sep-14 04:00N 27°55' W 082°27'0 0.0
2017-Sep-14 03:30N 27°55' W 082°27'0 0.0
2017-Sep-14 03:00N 27°55' W 082°27'0 0.0
2017-Sep-14 02:30N 27°55' W 082°27'0 0.0
2017-Sep-14 02:00N 27°55' W 082°27'0 0.0
2017-Sep-14 01:30N 27°55' W 082°27'1 1.7
2017-Sep-14 01:01N 27°56' W 082°26'0 0.0
2017-Sep-14 00:30N 27°56' W 082°26'0 0.9
2017-Sep-14 00:00N 27°55' W 082°26'2 4.8
2017-Sep-13 23:30N 27°53' W 082°26'1 1.3
2017-Sep-13 23:00N 27°54' W 082°26'2 3.2
2017-Sep-13 22:30N 27°55' W 082°27'0 0.0
2017-Sep-13 22:00N 27°55' W 082°27'0 0.0
2017-Sep-13 21:30N 27°55' W 082°27'1 1.2
2017-Sep-13 21:00N 27°56' W 082°27'0 0.2
2017-Sep-13 20:30N 27°56' W 082°27'2 4.4
2017-Sep-13 20:00N 27°54' W 082°26'2 4.3
2017-Sep-13 19:30N 27°52' W 082°27'4 7.5
2017-Sep-13 19:00N 27°48' W 082°28'3 0.5
2017-Sep-13 12:05N 27°46' W 082°31'110.3
2017-Sep-13 11:58N 27°47' W 082°31'5 9.5
2017-Sep-13 11:27N 27°50' W 082°27'410.0
2017-Sep-13 11:00N 27°54' W 082°26'1 2.4
2017-Sep-13 10:30N 27°55' W 082°27'0 0.0
2017-Sep-13 10:00N 27°55' W 082°27'0 0.0
2017-Sep-13 09:30N 27°55' W 082°27'0 0.0
2017-Sep-13 09:00N 27°55' W 082°27'0 0.0
2017-Sep-13 08:30N 27°55' W 082°27'0 0.0
2017-Sep-13 08:00N 27°55' W 082°27'0 0.0
2017-Sep-13 07:30N 27°55' W 082°27'0 0.0
2017-Sep-13 07:00N 27°55' W 082°27'0 0.0
2017-Sep-13 06:30N 27°55' W 082°27'0 0.0
2017-Sep-13 06:00N 27°55' W 082°27'0 0.0
2017-Sep-13 05:30N 27°55' W 082°27'0 0.0
2017-Sep-13 05:00N 27°55' W 082°27'0 0.0
2017-Sep-13 04:30N 27°55' W 082°27'0 0.0
2017-Sep-13 04:00N 27°55' W 082°27'0 0.0
2017-Sep-13 03:30N 27°55' W 082°27'0 0.0
2017-Sep-13 03:00N 27°55' W 082°27'0 0.0
2017-Sep-13 02:30N 27°55' W 082°27'0 0.0
2017-Sep-13 02:00N 27°55' W 082°27'0 0.0
2017-Sep-13 01:30N 27°55' W 082°27'0 0.0
2017-Sep-13 01:00N 27°55' W 082°27'0 0.0
2017-Sep-13 00:30N 27°55' W 082°27'0 0.0
2017-Sep-13 00:00N 27°55' W 082°27'0 0.0
2017-Sep-12 23:30N 27°55' W 082°27'0 0.9
2017-Sep-12 23:00N 27°55' W 082°27'0 0.0
2017-Sep-12 22:30N 27°55' W 082°27'0 0.9
2017-Sep-12 22:00N 27°55' W 082°26'2 3.8
2017-Sep-12 21:30N 27°53' W 082°27'1 2.0
2017-Sep-12 21:00N 27°54' W 082°26'2 3.6
2017-Sep-12 20:30N 27°55' W 082°27'0 0.0
2017-Sep-12 20:00N 27°55' W 082°27'0 0.0
2017-Sep-12 19:30N 27°55' W 082°27'0 0.0
2017-Sep-12 19:00N 27°55' W 082°27'0 0.0
2017-Sep-12 18:30N 27°55' W 082°27'0 0.0
2017-Sep-12 18:00N 27°55' W 082°27'0 0.0
2017-Sep-12 17:30N 27°55' W 082°27'0 0.0
2017-Sep-12 13:26N 27°55' W 082°27'0 0.0
2017-Sep-12 13:00N 27°55' W 082°27'0 0.0
2017-Sep-12 12:30N 27°55' W 082°27'0 0.0
2017-Sep-12 12:00N 27°55' W 082°27'  
Track history (hours):
 
Tides and Currents Weather Stations Pressure Air Temp Water Temp Dewpoint Dewpoint Depression Visibility Wind Speed Wind Dir Waves Ship Positions

Atlas

Owner: Seabulk Towing, Inc., Fort Lauderdale, FL. More information available from US FCC via Universal Licensing System and Coast Guard Vessel Documentation Center.

Last reported at 2017-Sep-22 02:00 UTC. Time now 2017-Sep-22 08:16 UTC.
Position N 27°55' W 082°27'.

Length 30 m; draft 6 m.

Type: Tug. MMSI: 367560990.

Date/timePositionNaut miles runAvg speedWind from/ knotsBaromVisibWave heightAir tempDewpointWater temp
2017-Sep-22 02:00N 27°55' W 082°27'0 0.0
2017-Sep-22 01:30N 27°55' W 082°27'1 2.6
2017-Sep-22 01:01N 27°54' W 082°26'1 1.6
2017-Sep-22 00:30N 27°55' W 082°27'0 0.2
2017-Sep-22 00:00N 27°55' W 082°26'0 0.0
2017-Sep-21 23:30N 27°55' W 082°26'0 0.8
2017-Sep-21 23:00N 27°55' W 082°27'1 1.2
2017-Sep-21 22:30N 27°55' W 082°26'2 4.1
2017-Sep-21 22:00N 27°53' W 082°26'2 3.9
2017-Sep-21 21:30N 27°54' W 082°26'1 1.9
2017-Sep-21 21:00N 27°55' W 082°27'0 0.0
2017-Sep-21 20:30N 27°55' W 082°27'0 0.0
2017-Sep-21 20:00N 27°55' W 082°27'0 0.0
2017-Sep-21 19:30N 27°55' W 082°27'0 0.0
2017-Sep-21 19:00N 27°55' W 082°27'0 0.0
2017-Sep-21 18:30N 27°55' W 082°27'0 0.0
2017-Sep-21 18:00N 27°55' W 082°27'0 0.0
2017-Sep-21 17:30N 27°55' W 082°27'0 0.0
2017-Sep-21 17:00N 27°55' W 082°27'0 0.0
2017-Sep-21 16:30N 27°55' W 082°27'0 0.0
2017-Sep-21 16:00N 27°55' W 082°27'0 0.0
2017-Sep-21 15:30N 27°55' W 082°27'0 0.0
2017-Sep-21 15:00N 27°55' W 082°27'0 0.0
2017-Sep-21 14:30N 27°55' W 082°27'0 0.0
2017-Sep-21 14:00N 27°55' W 082°27'0 0.0
2017-Sep-21 13:30N 27°55' W 082°27'0 0.0
2017-Sep-21 13:00N 27°55' W 082°27'0 0.0
2017-Sep-21 12:30N 27°55' W 082°27'0 0.0
2017-Sep-21 12:00N 27°55' W 082°27'0 0.0
2017-Sep-21 11:30N 27°55' W 082°27'0 0.0
2017-Sep-21 11:00N 27°55' W 082°27'0 0.0
2017-Sep-21 10:30N 27°55' W 082°27'0 0.0
2017-Sep-21 10:00N 27°55' W 082°27'0 0.0
2017-Sep-21 09:30N 27°55' W 082°27'0 0.0
2017-Sep-21 09:00N 27°55' W 082°27'0 0.0
2017-Sep-21 08:30N 27°55' W 082°27'0 0.0
2017-Sep-21 08:00N 27°55' W 082°27'0 0.0
2017-Sep-21 07:30N 27°55' W 082°27'0 0.0
2017-Sep-21 07:00N 27°55' W 082°27'0 0.0
2017-Sep-21 06:30N 27°55' W 082°27'0 0.0
2017-Sep-21 06:00N 27°55' W 082°27'0 0.0
2017-Sep-21 05:30N 27°55' W 082°27'0 0.0
2017-Sep-21 05:00N 27°55' W 082°27'0 0.9
2017-Sep-21 04:31N 27°55' W 082°27'0 0.4
2017-Sep-21 04:00N 27°55' W 082°27'0 0.6
2017-Sep-21 03:30N 27°55' W 082°27'0 0.0
2017-Sep-21 03:00N 27°55' W 082°27'0 0.0
2017-Sep-21 02:30N 27°55' W 082°27'0 0.0
2017-Sep-21 02:00N 27°55' W 082°27'0 0.0
2017-Sep-21 01:30N 27°55' W 082°27'0 0.0
2017-Sep-21 01:00N 27°55' W 082°27'0 0.0
2017-Sep-21 00:30N 27°55' W 082°27'0 0.0
2017-Sep-21 00:00N 27°55' W 082°27'0 0.0
2017-Sep-20 23:30N 27°55' W 082°27'0 0.0
2017-Sep-20 23:00N 27°55' W 082°27'0 0.0
2017-Sep-20 22:30N 27°55' W 082°27'0 0.0
2017-Sep-20 22:00N 27°55' W 082°27'0 0.0
2017-Sep-20 21:30N 27°55' W 082°27'0 0.0
2017-Sep-20 21:00N 27°55' W 082°27'0 0.0
2017-Sep-20 20:30N 27°55' W 082°27'0 0.0
2017-Sep-20 20:00N 27°55' W 082°27'0 0.0
2017-Sep-20 19:30N 27°55' W 082°27'0 0.0
2017-Sep-20 19:00N 27°55' W 082°27'0 0.0
2017-Sep-20 18:30N 27°55' W 082°27'0 0.0
2017-Sep-20 18:00N 27°55' W 082°27'0 0.0
2017-Sep-20 17:30N 27°55' W 082°27'0 0.0
2017-Sep-20 17:00N 27°55' W 082°27'0 0.0
2017-Sep-20 16:30N 27°55' W 082°27'3 5.5
2017-Sep-20 16:00N 27°53' W 082°26'4 7.9
2017-Sep-20 15:29N 27°49' W 082°27'4 8.2
2017-Sep-20 15:01N 27°47' W 082°31'3 0.1
2017-Sep-19 16:56N 27°48' W 082°34'4 8.1
2017-Sep-19 16:29N 27°51' W 082°33'1 1.4
2017-Sep-19 16:00N 27°52' W 082°33'0 0.0
2017-Sep-19 15:30N 27°52' W 082°33'0 0.0
2017-Sep-19 15:00N 27°52' W 082°33'0 0.0
2017-Sep-19 14:30N 27°52' W 082°33'0 0.6
2017-Sep-19 14:00N 27°52' W 082°33'0 0.3
2017-Sep-19 13:29N 27°52' W 082°33'0 0.0
2017-Sep-19 13:00N 27°52' W 082°33'6 5.1
2017-Sep-19 11:50N 27°49' W 082°27'3 9.4
2017-Sep-19 11:30N 27°52' W 082°26'3 5.8
2017-Sep-19 11:00N 27°55' W 082°27'0 0.0
2017-Sep-19 10:30N 27°55' W 082°27'0 0.0
2017-Sep-19 10:00N 27°55' W 082°27'0 0.0
2017-Sep-19 09:30N 27°55' W 082°27'0 0.0
2017-Sep-19 09:00N 27°55' W 082°27'0 0.0
2017-Sep-19 08:30N 27°55' W 082°27'0 0.0
2017-Sep-19 08:00N 27°55' W 082°27'0 0.0
2017-Sep-19 07:30N 27°55' W 082°27'0 0.0
2017-Sep-19 07:00N 27°55' W 082°27'0 0.0
2017-Sep-19 06:30N 27°55' W 082°27'0 0.0
2017-Sep-19 06:00N 27°55' W 082°27'0 0.0
2017-Sep-19 05:30N 27°55' W 082°27'0 0.0
2017-Sep-19 05:00N 27°55' W 082°27'0 0.0
2017-Sep-19 04:30N 27°55' W 082°27'0 0.0
2017-Sep-19 04:00N 27°55' W 082°27'0 0.0
2017-Sep-19 03:30N 27°55' W 082°27'0 0.0
2017-Sep-19 03:00N 27°55' W 082°27'0 0.0
2017-Sep-19 02:30N 27°55' W 082°27'0 0.0
2017-Sep-19 02:00N 27°55' W 082°27'0 0.0
2017-Sep-19 01:30N 27°55' W 082°27'0 0.0
2017-Sep-19 01:00N 27°55' W 082°27'0 0.0
2017-Sep-19 00:30N 27°55' W 082°27'0 0.0
2017-Sep-19 00:00N 27°55' W 082°27'0 0.0
2017-Sep-18 23:30N 27°55' W 082°27'1 2.5
2017-Sep-18 23:00N 27°54' W 082°26'1 1.9
2017-Sep-18 22:30N 27°55' W 082°25'0 0.3
2017-Sep-18 22:00N 27°55' W 082°25'1 1.3
2017-Sep-18 21:30N 27°54' W 082°26'0 0.4
2017-Sep-18 21:00N 27°54' W 082°25'1 2.4
2017-Sep-18 20:30N 27°55' W 082°27'1 1.4
2017-Sep-18 20:00N 27°55' W 082°27'0 0.0
2017-Sep-18 19:30N 27°55' W 082°27'0 0.0
2017-Sep-18 19:00N 27°55' W 082°27'0 0.0
2017-Sep-18 18:30N 27°55' W 082°27'0 0.0
2017-Sep-18 18:00N 27°55' W 082°27'0 0.5
2017-Sep-18 17:31N 27°55' W 082°27'1 2.0
2017-Sep-18 17:00N 27°54' W 082°26'0 0.4
2017-Sep-18 16:30N 27°54' W 082°26'1 2.0
2017-Sep-18 16:00N 27°55' W 082°27'0 0.0
2017-Sep-18 15:30N 27°55' W 082°27'0 0.0
2017-Sep-18 15:00N 27°55' W 082°27'0 0.0
2017-Sep-18 14:30N 27°55' W 082°27'0 0.0
2017-Sep-18 14:00N 27°55' W 082°27'0 0.0
2017-Sep-18 13:30N 27°55' W 082°27'0 0.0
2017-Sep-18 13:00N 27°55' W 082°27'0 0.0
2017-Sep-18 12:30N 27°55' W 082°27'0 0.0
2017-Sep-18 12:00N 27°55' W 082°27'0 0.0
2017-Sep-18 11:30N 27°55' W 082°27'0 0.0
2017-Sep-18 11:00N 27°55' W 082°27'0 0.0
2017-Sep-18 10:30N 27°55' W 082°27'0 0.0
2017-Sep-18 10:00N 27°55' W 082°27'0 0.0
2017-Sep-18 09:30N 27°55' W 082°27'0 0.0
2017-Sep-18 09:00N 27°55' W 082°27'0 0.0
2017-Sep-18 08:30N 27°55' W 082°27'0 0.0
2017-Sep-18 08:00N 27°55' W 082°27'0 0.0
2017-Sep-18 07:30N 27°55' W 082°27'0 0.0
2017-Sep-18 07:00N 27°55' W 082°27'0 0.0
2017-Sep-18 06:30N 27°55' W 082°27'0 0.0
2017-Sep-18 06:00N 27°55' W 082°27'0 0.0
2017-Sep-18 05:30N 27°55' W 082°27'0 0.0
2017-Sep-18 05:00N 27°55' W 082°27'0 0.0
2017-Sep-18 04:30N 27°55' W 082°27'0 0.0
2017-Sep-18 04:00N 27°55' W 082°27'0 0.0
2017-Sep-18 03:30N 27°55' W 082°27'0 0.0
2017-Sep-18 03:00N 27°55' W 082°27'0 0.0
2017-Sep-18 02:30N 27°55' W 082°27'0 0.0
2017-Sep-18 02:00N 27°55' W 082°27'0 0.0
2017-Sep-18 01:30N 27°55' W 082°27'0 0.0
2017-Sep-18 01:00N 27°55' W 082°27'0 0.0
2017-Sep-18 00:30N 27°55' W 082°27'0 0.0
2017-Sep-18 00:00N 27°55' W 082°27'0 0.8
2017-Sep-17 23:30N 27°55' W 082°27'0 0.0
2017-Sep-17 23:00N 27°55' W 082°27'0 0.3
2017-Sep-17 22:30N 27°55' W 082°27'2 3.3
2017-Sep-17 22:00N 27°53' W 082°26'0 0.9
2017-Sep-17 21:30N 27°53' W 082°26'2 4.4
2017-Sep-17 21:00N 27°55' W 082°26'0 0.0
2017-Sep-17 20:30N 27°55' W 082°26'0 0.6
2017-Sep-17 20:01N 27°55' W 082°26'0 0.2
2017-Sep-17 19:31N 27°55' W 082°26'2 3.4
2017-Sep-17 19:00N 27°54' W 082°26'3 6.8
2017-Sep-17 18:30N 27°50' W 082°27'3 5.5
2017-Sep-17 18:00N 27°48' W 082°28'3 5.5
2017-Sep-17 17:30N 27°47' W 082°31'4 7.8
2017-Sep-17 16:58N 27°43' W 082°32'4 0.5
2017-Sep-17 08:56N 27°47' W 082°31'5 8.4
2017-Sep-17 08:22N 27°51' W 082°33'1 2.1
2017-Sep-17 08:00N 27°52' W 082°33'0 0.0
2017-Sep-17 07:30N 27°52' W 082°33'0 0.0
2017-Sep-17 07:00N 27°52' W 082°33'0 0.0
2017-Sep-17 06:30N 27°52' W 082°33'0 0.0
2017-Sep-17 06:00N 27°52' W 082°33'0 0.0
2017-Sep-17 05:30N 27°52' W 082°33'0 0.0
2017-Sep-17 05:00N 27°52' W 082°33'0 0.0
2017-Sep-17 04:30N 27°52' W 082°33'0 0.0
2017-Sep-17 04:00N 27°52' W 082°33'0 0.0
2017-Sep-17 03:30N 27°52' W 082°33'0 0.0
2017-Sep-17 03:00N 27°52' W 082°33'0 0.0
2017-Sep-17 02:30N 27°52' W 082°33'0 0.0
2017-Sep-17 02:00N 27°52' W 082°33'0 0.0
2017-Sep-17 01:30N 27°52' W 082°33'0 0.0
2017-Sep-17 01:00N 27°52' W 082°33'0 0.0
2017-Sep-17 00:30N 27°52' W 082°33'0 0.0
2017-Sep-17 00:00N 27°52' W 082°33'0 0.0
2017-Sep-16 23:30N 27°52' W 082°33'0 0.0
2017-Sep-16 23:00N 27°52' W 082°33'0 0.0
2017-Sep-16 22:30N 27°52' W 082°33'0 0.0
2017-Sep-16 22:00N 27°52' W 082°33'0 0.0
2017-Sep-16 21:30N 27°52' W 082°33'0 0.0
2017-Sep-16 21:00N 27°52' W 082°33'0 0.0
2017-Sep-16 20:30N 27°52' W 082°33'0 0.0
2017-Sep-16 20:00N 27°52' W 082°33'0 0.0
2017-Sep-16 19:30N 27°52' W 082°33'0 0.0
2017-Sep-16 19:00N 27°52' W 082°33'0 0.0
2017-Sep-16 18:30N 27°52' W 082°33'0 0.0
2017-Sep-16 18:00N 27°52' W 082°33'0 0.0
2017-Sep-16 17:30N 27°52' W 082°33'0 0.0
2017-Sep-16 17:00N 27°52' W 082°33'0 0.0
2017-Sep-16 16:30N 27°52' W 082°33'0 0.0
2017-Sep-16 16:00N 27°52' W 082°33'0 0.0
2017-Sep-16 15:30N 27°52' W 082°33'0 0.0
2017-Sep-16 15:00N 27°52' W 082°33'0 0.0
2017-Sep-16 14:30N 27°52' W 082°33'0 0.0
2017-Sep-16 14:00N 27°52' W 082°33'0 0.0
2017-Sep-16 13:30N 27°52' W 082°33'0 0.0
2017-Sep-16 13:00N 27°52' W 082°33'0 0.0
2017-Sep-16 12:30N 27°52' W 082°33'0 0.0
2017-Sep-16 12:00N 27°52' W 082°33'0 0.0
2017-Sep-16 11:30N 27°52' W 082°33'0 0.0
2017-Sep-16 11:00N 27°52' W 082°33'0 0.0
2017-Sep-16 10:30N 27°52' W 082°33'0 0.0
2017-Sep-16 10:00N 27°52' W 082°33'0 0.0
2017-Sep-16 09:30N 27°52' W 082°33'0 0.0
2017-Sep-16 09:00N 27°52' W 082°33'0 0.0
2017-Sep-16 08:30N 27°52' W 082°33'0 0.0
2017-Sep-16 08:00N 27°52' W 082°33'0 0.0
2017-Sep-16 07:30N 27°52' W 082°33'0 0.0
2017-Sep-16 07:00N 27°52' W 082°33'0 0.0
2017-Sep-16 06:30N 27°52' W 082°33'0 0.0
2017-Sep-16 06:00N 27°52' W 082°33'0 0.0
2017-Sep-16 05:30N 27°52' W 082°33'0 0.0
2017-Sep-16 05:00N 27°52' W 082°33'0 0.0
2017-Sep-16 04:30N 27°52' W 082°33'0 0.0
2017-Sep-16 04:00N 27°52' W 082°33'0 0.0
2017-Sep-16 03:30N 27°52' W 082°33'0 0.0
2017-Sep-16 03:00N 27°52' W 082°33'0 0.0
2017-Sep-16 02:30N 27°52' W 082°33'0 0.0
2017-Sep-16 02:00N 27°52' W 082°33'0 0.0
2017-Sep-16 01:30N 27°52' W 082°33'0 0.0
2017-Sep-16 01:00N 27°52' W 082°33'0 0.1
2017-Sep-16 00:30N 27°52' W 082°33'0 0.2
2017-Sep-16 00:00N 27°52' W 082°33'2 3.4
2017-Sep-15 23:27N 27°50' W 082°34'6 6.7
2017-Sep-15 22:37N 27°48' W 082°28'111.1
2017-Sep-15 22:30N 27°49' W 082°27'611.2
2017-Sep-15 22:00N 27°54' W 082°26'2 4.3
2017-Sep-15 21:30N 27°57' W 082°27'1 1.0
2017-Sep-15 21:00N 27°57' W 082°27'0 0.3
2017-Sep-15 20:30N 27°57' W 082°27'0 0.6
2017-Sep-15 20:00N 27°57' W 082°27'0 0.2
2017-Sep-15 19:30N 27°57' W 082°27'0 0.9
2017-Sep-15 19:00N 27°56' W 082°27'2 4.1
2017-Sep-15 18:30N 27°54' W 082°26'1 2.8
2017-Sep-15 18:00N 27°55' W 082°25'1 1.4
2017-Sep-15 17:30N 27°55' W 082°26'1 2.3
2017-Sep-15 17:00N 27°55' W 082°27'0 0.0
2017-Sep-15 16:30N 27°55' W 082°27'0 0.0
2017-Sep-15 16:00N 27°55' W 082°27'0 0.0
2017-Sep-15 15:30N 27°55' W 082°27'0 0.0
2017-Sep-15 15:00N 27°55' W 082°27'2 4.1
2017-Sep-15 14:30N 27°53' W 082°26'4 8.7
2017-Sep-15 14:00N 27°49' W 082°27'2 1.7
2017-Sep-15 12:57N 27°51' W 082°27'4 8.6
2017-Sep-15 12:30N 27°54' W 082°26'1 1.8
2017-Sep-15 12:00N 27°55' W 082°27'0 0.0
2017-Sep-15 11:30N 27°55' W 082°27'0 0.0
2017-Sep-15 11:00N 27°55' W 082°27'0 0.0
2017-Sep-15 10:30N 27°55' W 082°27'0 0.0
2017-Sep-15 10:00N 27°55' W 082°27'0 0.0
2017-Sep-15 09:30N 27°55' W 082°27'0 0.0
2017-Sep-15 09:00N 27°55' W 082°27'0 0.0
2017-Sep-15 08:30N 27°55' W 082°27'0 0.0
2017-Sep-15 08:00N 27°55' W 082°27'0 0.0
2017-Sep-15 07:30N 27°55' W 082°27'0 0.0
2017-Sep-15 07:00N 27°55' W 082°27'0 0.0
2017-Sep-15 06:30N 27°55' W 082°27'0 0.0
2017-Sep-15 06:00N 27°55' W 082°27'0 0.2
2017-Sep-15 05:30N 27°55' W 082°27'1 2.1
2017-Sep-15 05:00N 27°56' W 082°27'0 0.9
2017-Sep-15 04:30N 27°56' W 082°27'1 1.4
2017-Sep-15 04:00N 27°55' W 082°27'0 0.0
2017-Sep-15 03:30N 27°55' W 082°27'0 0.0
2017-Sep-15 03:00N 27°55' W 082°27'0 0.0
2017-Sep-15 02:30N 27°55' W 082°27'0 0.0
2017-Sep-15 02:00N 27°55' W 082°27'1 2.7
2017-Sep-15 01:30N 27°54' W 082°26'5 9.8
2017-Sep-15 01:00N 27°49' W 082°27'6 9.1
2017-Sep-15 00:23N 27°47' W 082°33'3 6.9
2017-Sep-15 00:00N 27°50' W 082°34'2 4.6
2017-Sep-14 23:30N 27°52' W 082°33'0 0.0
2017-Sep-14 23:00N 27°52' W 082°33'1 1.7
2017-Sep-14 22:20N 27°51' W 082°34'6 5.8
2017-Sep-14 21:16N 27°49' W 082°27'311.3
2017-Sep-14 21:00N 27°52' W 082°27'3 6.7
2017-Sep-14 20:30N 27°55' W 082°27'0 0.2
2017-Sep-14 20:00N 27°55' W 082°27'0 0.5
2017-Sep-14 19:30N 27°55' W 082°27'0 0.0
2017-Sep-14 19:00N 27°55' W 082°27'0 0.0
2017-Sep-14 18:30N 27°55' W 082°27'0 0.0
2017-Sep-14 18:00N 27°55' W 082°27'0 0.0
2017-Sep-14 17:30N 27°55' W 082°27'0 0.0
2017-Sep-14 17:00N 27°55' W 082°27'0 0.0
2017-Sep-14 16:30N 27°55' W 082°27'0 0.0
2017-Sep-14 16:00N 27°55' W 082°27'0 0.0
2017-Sep-14 15:30N 27°55' W 082°27'0 0.0
2017-Sep-14 15:00N 27°55' W 082°27'0 0.0
2017-Sep-14 14:30N 27°55' W 082°27'0 0.0
2017-Sep-14 14:00N 27°55' W 082°27'0 0.0
2017-Sep-14 13:30N 27°55' W 082°27'0 0.0
2017-Sep-14 13:00N 27°55' W 082°27'0 0.0
2017-Sep-14 12:30N 27°55' W 082°27'0 0.0
2017-Sep-14 12:00N 27°55' W 082°27'2 3.6
2017-Sep-14 11:30N 27°57' W 082°27'0 0.0
2017-Sep-14 11:00N 27°57' W 082°27'1 2.2
2017-Sep-14 10:30N 27°56' W 082°27'1 2.2
2017-Sep-14 10:00N 27°55' W 082°27'0 0.9
2017-Sep-14 09:30N 27°55' W 082°27'0 0.0
2017-Sep-14 09:00N 27°55' W 082°27'0 0.0
2017-Sep-14 08:30N 27°55' W 082°27'0 0.0
2017-Sep-14 08:00N 27°55' W 082°27'0 0.0
2017-Sep-14 07:30N 27°55' W 082°27'0 0.0
2017-Sep-14 07:00N 27°55' W 082°27'0 0.0
2017-Sep-14 06:30N 27°55' W 082°27'0 0.0
2017-Sep-14 06:00N 27°55' W 082°27'0 0.0
2017-Sep-14 05:30N 27°55' W 082°27'0 0.0
2017-Sep-14 05:00N 27°55' W 082°27'0 0.0
2017-Sep-14 04:30N 27°55' W 082°27'0 0.0
2017-Sep-14 04:00N 27°55' W 082°27'0 0.0
2017-Sep-14 03:30N 27°55' W 082°27'0 0.0
2017-Sep-14 03:00N 27°55' W 082°27'0 0.0
2017-Sep-14 02:30N 27°55' W 082°27'0 0.0
2017-Sep-14 02:00N 27°55' W 082°27'0 0.0
2017-Sep-14 01:30N 27°55' W 082°27'1 1.7
2017-Sep-14 01:01N 27°56' W 082°26'0 0.0
2017-Sep-14 00:30N 27°56' W 082°26'0 0.9
2017-Sep-14 00:00N 27°55' W 082°26'2 4.8
2017-Sep-13 23:30N 27°53' W 082°26'1 1.3
2017-Sep-13 23:00N 27°54' W 082°26'2 3.2
2017-Sep-13 22:30N 27°55' W 082°27'0 0.0
2017-Sep-13 22:00N 27°55' W 082°27'0 0.0
2017-Sep-13 21:30N 27°55' W 082°27'1 1.2
2017-Sep-13 21:00N 27°56' W 082°27'0 0.2
2017-Sep-13 20:30N 27°56' W 082°27'2 4.4
2017-Sep-13 20:00N 27°54' W 082°26'2 4.3
2017-Sep-13 19:30N 27°52' W 082°27'4 7.5
2017-Sep-13 19:00N 27°48' W 082°28'3 0.5
2017-Sep-13 12:05N 27°46' W 082°31'110.3
2017-Sep-13 11:58N 27°47' W 082°31'5 9.5
2017-Sep-13 11:27N 27°50' W 082°27'410.0
2017-Sep-13 11:00N 27°54' W 082°26'1 2.4
2017-Sep-13 10:30N 27°55' W 082°27'0 0.0
2017-Sep-13 10:00N 27°55' W 082°27'0 0.0
2017-Sep-13 09:30N 27°55' W 082°27'0 0.0
2017-Sep-13 09:00N 27°55' W 082°27'0 0.0
2017-Sep-13 08:30N 27°55' W 082°27'0 0.0
2017-Sep-13 08:00N 27°55' W 082°27'0 0.0
2017-Sep-13 07:30N 27°55' W 082°27'0 0.0
2017-Sep-13 07:00N 27°55' W 082°27'0 0.0
2017-Sep-13 06:30N 27°55' W 082°27'0 0.0
2017-Sep-13 06:00N 27°55' W 082°27'0 0.0
2017-Sep-13 05:30N 27°55' W 082°27'0 0.0
2017-Sep-13 05:00N 27°55' W 082°27'0 0.0
2017-Sep-13 04:30N 27°55' W 082°27'0 0.0
2017-Sep-13 04:00N 27°55' W 082°27'0 0.0
2017-Sep-13 03:30N 27°55' W 082°27'0 0.0
2017-Sep-13 03:00N 27°55' W 082°27'0 0.0
2017-Sep-13 02:30N 27°55' W 082°27'0 0.0
2017-Sep-13 02:00N 27°55' W 082°27'0 0.0
2017-Sep-13 01:30N 27°55' W 082°27'0 0.0
2017-Sep-13 01:00N 27°55' W 082°27'0 0.0
2017-Sep-13 00:30N 27°55' W 082°27'0 0.0
2017-Sep-13 00:00N 27°55' W 082°27'0 0.0
2017-Sep-12 23:30N 27°55' W 082°27'0 0.9
2017-Sep-12 23:00N 27°55' W 082°27'0 0.0
2017-Sep-12 22:30N 27°55' W 082°27'0 0.9
2017-Sep-12 22:00N 27°55' W 082°26'2 3.8
2017-Sep-12 21:30N 27°53' W 082°27'1 2.0
2017-Sep-12 21:00N 27°54' W 082°26'2 3.6
2017-Sep-12 20:30N 27°55' W 082°27'0 0.0
2017-Sep-12 20:00N 27°55' W 082°27'0 0.0
2017-Sep-12 19:30N 27°55' W 082°27'0 0.0
2017-Sep-12 19:00N 27°55' W 082°27'0 0.0
2017-Sep-12 18:30N 27°55' W 082°27'0 0.0
2017-Sep-12 18:00N 27°55' W 082°27'0 0.0
2017-Sep-12 17:30N 27°55' W 082°27'0 0.0
2017-Sep-12 13:26N 27°55' W 082°27'0 0.0
2017-Sep-12 13:00N 27°55' W 082°27'0 0.0
2017-Sep-12 12:30N 27°55' W 082°27'0 0.0
2017-Sep-12 12:00N 27°55' W 082°27'  

Dump ship's entire track history